createdAt,value
2022-12-25T00:02:15.662Z,97549.83
2022-12-25T00:04:43.108Z,97553.28
2022-12-25T00:07:11.321Z,97548.73
2022-12-25T00:09:38.846Z,97548.19
2022-12-25T00:12:06.807Z,97553.53
2022-12-25T00:14:35.785Z,97559.11
2022-12-25T00:17:03.632Z,97556.99
2022-12-25T00:19:31.389Z,97557.78
2022-12-25T00:21:59.117Z,97560.72
2022-12-25T00:24:26.973Z,97562.57
2022-12-25T00:26:54.751Z,97565.00
2022-12-25T00:29:22.972Z,97567.13
2022-12-25T00:31:50.969Z,97573.56
2022-12-25T00:34:18.772Z,97581.56
2022-12-25T00:36:47.045Z,97578.66
2022-12-25T00:39:14.409Z,97589.88
2022-12-25T00:42:00.459Z,97585.87
2022-12-25T00:44:28.475Z,97596.01
2022-12-25T00:46:56.067Z,97589.88
2022-12-25T00:49:25.495Z,97594.67
2022-12-25T00:51:53.303Z,97589.33
2022-12-25T00:54:21.238Z,97593.04
2022-12-25T00:56:49.057Z,97585.03
2022-12-25T00:59:17.029Z,97595.16
2022-12-25T01:01:44.979Z,97596.22
2022-12-25T01:04:13.217Z,97593.01
2022-12-25T01:06:41.103Z,97586.58
2022-12-25T01:09:27.761Z,97589.25
2022-12-25T01:11:55.477Z,97591.89
2022-12-25T01:14:23.509Z,97586.85
2022-12-25T01:16:51.271Z,97592.98
2022-12-25T01:19:18.986Z,97590.58
2022-12-25T01:21:46.787Z,97590.34
2022-12-25T01:24:14.739Z,97587.16
2022-12-25T01:26:42.500Z,97578.11
2022-12-25T01:29:10.196Z,97585.05
2022-12-25T01:31:37.958Z,97581.36
2022-12-25T01:34:06.382Z,97582.69
2022-12-25T01:36:34.231Z,97585.12
2022-12-25T01:39:02.018Z,97583.78
2022-12-25T01:41:29.607Z,97577.92
2022-12-25T01:44:17.809Z,97581.72
2022-12-25T01:46:45.880Z,97581.23
2022-12-25T01:49:19.206Z,97582.07
2022-12-25T01:51:58.280Z,97581.39
2022-12-25T01:54:37.417Z,97588.12
2022-12-25T01:57:09.566Z,97596.78
2022-12-25T01:59:37.772Z,97598.44
2022-12-25T02:02:05.410Z,97605.70
2022-12-25T02:04:44.608Z,97613.53
2022-12-25T02:07:22.432Z,97612.27
2022-12-25T02:09:52.023Z,97614.77
2022-12-25T02:12:26.958Z,97614.23
2022-12-25T02:15:04.902Z,97629.20
2022-12-25T02:17:39.772Z,97632.66
2022-12-25T02:20:39.748Z,97633.70
2022-12-25T02:23:28.139Z,97641.68
2022-12-25T02:26:29.572Z,97633.67
2022-12-25T02:29:09.485Z,97628.89
2022-12-25T02:32:04.340Z,97629.75
2022-12-25T02:34:49.143Z,97632.98
2022-12-25T02:37:47.323Z,97638.56
2022-12-25T02:40:29.726Z,97635.34
2022-12-25T02:43:24.746Z,97643.65
2022-12-25T02:46:18.649Z,97641.79
2022-12-25T02:49:12.099Z,97641.79
2022-12-25T02:52:03.293Z,97649.77
2022-12-25T02:54:54.852Z,97643.08
2022-12-25T02:57:45.489Z,97651.31
2022-12-25T03:00:33.485Z,97639.26
2022-12-25T03:03:24.547Z,97643.77
2022-12-25T03:06:15.710Z,97636.01
2022-12-25T03:08:48.026Z,97640.78
2022-12-25T03:11:30.824Z,97642.36
2022-12-25T03:14:21.138Z,97646.34
2022-12-25T03:16:54.149Z,97646.34
2022-12-25T03:19:46.090Z,97647.15
2022-12-25T03:22:42.550Z,97654.34
2022-12-25T03:25:29.196Z,97663.14
2022-12-25T03:27:58.415Z,97668.22
2022-12-25T03:31:11.526Z,97668.47
2022-12-25T03:34:35.771Z,97671.39
2022-12-25T03:37:41.928Z,97675.13
2022-12-25T03:40:34.411Z,97671.36
2022-12-25T03:43:31.978Z,97670.33
2022-12-25T03:46:22.562Z,97669.23
2022-12-25T03:49:14.694Z,97675.13
2022-12-25T03:52:02.700Z,97674.83
2022-12-25T03:54:51.789Z,97684.95
2022-12-25T03:57:38.007Z,97681.73
2022-12-25T04:00:25.502Z,97682.02
2022-12-25T04:03:11.855Z,97691.08
2022-12-25T04:05:58.438Z,97700.94
2022-12-25T04:08:44.794Z,97698.81
2022-12-25T04:11:31.415Z,97705.19
2022-12-25T04:14:17.391Z,97703.06
2022-12-25T04:17:03.535Z,97703.86
2022-12-25T04:19:50.200Z,97710.28
2022-12-25T04:22:36.459Z,97716.16
2022-12-25T04:25:23.151Z,97719.38
2022-12-25T04:28:09.463Z,97723.38
2022-12-25T04:30:55.759Z,97719.64
2022-12-25T04:33:41.697Z,97720.43
2022-12-25T04:36:09.869Z,97718.59
2022-12-25T04:38:39.261Z,97726.85
2022-12-25T04:41:10.151Z,97731.15
2022-12-25T04:43:38.315Z,97725.27
2022-12-25T04:46:06.391Z,97726.88
2022-12-25T04:48:36.477Z,97739.42
2022-12-25T04:51:18.991Z,97735.70
2022-12-25T04:53:48.176Z,97740.21
2022-12-25T04:56:19.236Z,97746.88
2022-12-25T04:58:46.934Z,97754.63
2022-12-25T05:01:15.580Z,97751.16
2022-12-25T05:03:43.843Z,97755.12
2022-12-25T05:06:11.983Z,97751.41
2022-12-25T05:08:39.835Z,97742.86
2022-12-25T05:11:11.050Z,97755.16
2022-12-25T05:13:39.192Z,97739.42
2022-12-25T05:16:17.221Z,97743.44
2022-12-25T05:18:50.577Z,97758.95
2022-12-25T05:21:19.201Z,97753.65
2022-12-25T05:23:52.607Z,97752.63
2022-12-25T05:26:24.233Z,97752.39
2022-12-25T05:28:52.715Z,97772.45
2022-12-25T05:31:20.744Z,97775.16
2022-12-25T05:33:52.528Z,97773.33
2022-12-25T05:36:20.485Z,97764.02
2022-12-25T05:38:48.417Z,97770.97
2022-12-25T05:41:16.210Z,97782.72
2022-12-25T05:43:43.970Z,97784.05
2022-12-25T05:46:13.872Z,97790.17
2022-12-25T05:48:41.896Z,97805.08
2022-12-25T05:51:12.358Z,97796.54
2022-12-25T05:53:43.454Z,97800.78
2022-12-25T05:56:12.197Z,97795.94
2022-12-25T05:58:40.460Z,97804.47
2022-12-25T06:01:18.044Z,97801.00
2022-12-25T06:03:45.971Z,97808.45
2022-12-25T06:06:14.285Z,97804.95
2022-12-25T06:08:42.298Z,97799.05
2022-12-25T06:11:11.130Z,97804.38
2022-12-25T06:13:38.923Z,97813.67
2022-12-25T06:16:09.682Z,97821.66
2022-12-25T06:18:39.863Z,97817.91
2022-12-25T06:21:11.006Z,97820.85
2022-12-25T06:23:39.279Z,97818.69
2022-12-25T06:26:11.136Z,97821.88
2022-12-25T06:28:38.691Z,97827.22
2022-12-25T06:31:12.437Z,97834.13
2022-12-25T06:33:40.640Z,97835.70
2022-12-25T06:36:12.983Z,97839.71
2022-12-25T06:38:40.788Z,97847.17
2022-12-25T06:41:13.638Z,97849.03
2022-12-25T06:43:41.251Z,97852.23
2022-12-25T06:46:11.980Z,97861.80
2022-12-25T06:48:43.066Z,97857.76
2022-12-25T06:51:10.814Z,97860.16
2022-12-25T06:53:40.116Z,97863.61
2022-12-25T06:56:14.209Z,97874.78
2022-12-25T06:58:51.446Z,97876.35
2022-12-25T07:01:24.513Z,97879.27
2022-12-25T07:04:00.227Z,97887.02
2022-12-25T07:06:28.472Z,97891.02
2022-12-25T07:08:56.523Z,97895.56
2022-12-25T07:11:24.873Z,97895.83
2022-12-25T07:13:52.686Z,97906.79
2022-12-25T07:16:20.682Z,97902.73
2022-12-25T07:18:48.434Z,97902.72
2022-12-25T07:21:19.443Z,97901.08
2022-12-25T07:23:49.883Z,97899.72
2022-12-25T07:26:18.337Z,97906.89
2022-12-25T07:28:46.237Z,97909.00
2022-12-25T07:31:16.538Z,97909.48
2022-12-25T07:33:45.438Z,97921.47
2022-12-25T07:36:15.326Z,97925.69
2022-12-25T07:38:43.734Z,97928.31
2022-12-25T07:41:12.544Z,97934.19
2022-12-25T07:43:40.901Z,97945.12
2022-12-25T07:46:10.100Z,97953.39
2022-12-25T07:48:39.759Z,97953.92
2022-12-25T07:51:11.722Z,97955.48
2022-12-25T07:53:40.570Z,97972.56
2022-12-25T07:56:16.808Z,97969.33
2022-12-25T07:58:47.879Z,97962.63
2022-12-25T08:01:23.303Z,97971.42
2022-12-25T08:03:58.330Z,97974.00
2022-12-25T08:06:34.586Z,97966.62
2022-12-25T08:09:07.245Z,97983.28
2022-12-25T08:11:35.980Z,97987.10
2022-12-25T08:14:08.038Z,97999.77
2022-12-25T08:16:38.029Z,97992.12
2022-12-25T08:19:05.650Z,97983.42
2022-12-25T08:21:34.608Z,97987.00
2022-12-25T08:24:02.882Z,97989.23
2022-12-25T08:26:31.362Z,97998.71
2022-12-25T08:28:59.315Z,98012.13
2022-12-25T08:31:29.396Z,98006.06
2022-12-25T08:33:58.924Z,98022.45
2022-12-25T08:36:27.079Z,98032.34
2022-12-25T08:39:02.090Z,98014.84
2022-12-25T08:41:24.837Z,98013.83
2022-12-25T08:43:52.687Z,98017.64
2022-12-25T08:46:20.809Z,98024.68
2022-12-25T08:48:49.927Z,98031.69
2022-12-25T08:51:20.964Z,98027.78
2022-12-25T08:53:52.052Z,98023.30
2022-12-25T08:56:20.569Z,98038.78
2022-12-25T08:58:48.907Z,98033.43
2022-12-25T09:01:16.772Z,98032.04
2022-12-25T09:03:44.929Z,98037.91
2022-12-25T09:06:15.956Z,98044.25
2022-12-25T09:08:49.248Z,98032.41
2022-12-25T09:11:16.343Z,98035.03
2022-12-25T09:13:44.152Z,98035.02
2022-12-25T09:16:16.656Z,98031.22
2022-12-25T09:18:44.832Z,98030.52
2022-12-25T09:21:14.611Z,98044.66
2022-12-25T09:23:42.949Z,98043.25
2022-12-25T09:26:14.466Z,98039.70
2022-12-25T09:28:48.750Z,98043.64
2022-12-25T09:31:13.190Z,98050.76
2022-12-25T09:33:41.330Z,98048.21
2022-12-25T09:36:10.068Z,98054.12
2022-12-25T09:38:37.547Z,98046.99
2022-12-25T09:41:25.695Z,98051.70
2022-12-25T09:44:10.505Z,98060.92
2022-12-25T09:46:46.863Z,98055.35
2022-12-25T09:49:42.778Z,98056.84
2022-12-25T09:52:27.256Z,98051.89
2022-12-25T09:55:21.224Z,98070.52
2022-12-25T09:57:58.266Z,98079.44
2022-12-25T10:00:36.153Z,98084.72
2022-12-25T10:03:39.452Z,98078.32
2022-12-25T10:06:21.902Z,98075.16
2022-12-25T10:09:19.401Z,98078.80
2022-12-25T10:12:11.746Z,98084.65
2022-12-25T10:15:06.568Z,98083.89
2022-12-25T10:17:52.335Z,98089.34
2022-12-25T10:20:23.507Z,98090.45
2022-12-25T10:23:00.550Z,98092.04
2022-12-25T10:25:28.495Z,98087.56
2022-12-25T10:28:01.680Z,98086.47
2022-12-25T10:30:31.050Z,98087.04
2022-12-25T10:32:58.866Z,98081.71
2022-12-25T10:35:29.549Z,98087.07
2022-12-25T10:38:04.408Z,98086.25
2022-12-25T10:41:01.590Z,98095.87
2022-12-25T10:43:55.066Z,98090.45
2022-12-25T10:46:26.884Z,98093.35
2022-12-25T10:49:00.745Z,98097.83
2022-12-25T10:51:35.318Z,98079.38
2022-12-25T10:54:24.399Z,98080.94
2022-12-25T10:57:06.422Z,98076.61
2022-12-25T10:59:44.601Z,98076.95
2022-12-25T11:02:33.230Z,98074.27
2022-12-25T11:05:08.200Z,98067.20
2022-12-25T11:07:40.305Z,98069.19
2022-12-25T11:10:32.537Z,98067.97
2022-12-25T11:13:01.803Z,98063.09
2022-12-25T11:15:45.752Z,98066.25
2022-12-25T11:18:26.488Z,98073.44
2022-12-25T11:20:58.317Z,98067.77
2022-12-25T11:23:29.623Z,98072.30
2022-12-25T11:26:02.031Z,98074.78
2022-12-25T11:28:33.628Z,98074.27
2022-12-25T11:31:09.610Z,98079.86
2022-12-25T11:33:45.383Z,98073.95
2022-12-25T11:36:25.016Z,98083.44
2022-12-25T11:38:52.757Z,98078.66
2022-12-25T11:41:24.623Z,98080.57
2022-12-25T11:44:04.019Z,98080.33
2022-12-25T11:46:37.240Z,98086.27
2022-12-25T11:49:09.646Z,98085.27
2022-12-25T11:51:41.544Z,98086.84
2022-12-25T11:54:33.550Z,98086.58
2022-12-25T11:57:04.432Z,98085.72
2022-12-25T11:59:55.869Z,98087.27
2022-12-25T12:02:38.530Z,98095.03
2022-12-25T12:05:26.997Z,98097.75
2022-12-25T12:07:59.608Z,98103.38
2022-12-25T12:10:58.532Z,98107.16
2022-12-25T12:13:47.162Z,98105.27
2022-12-25T12:16:15.017Z,98101.47
2022-12-25T12:18:49.810Z,98106.00
2022-12-25T12:21:26.548Z,98099.91
2022-12-25T12:24:10.025Z,98102.34
2022-12-25T12:26:40.908Z,98102.14
2022-12-25T12:29:37.626Z,98108.07
2022-12-25T12:32:09.890Z,98108.10
2022-12-25T12:34:47.539Z,98112.12
2022-12-25T12:37:29.472Z,98115.34
2022-12-25T12:39:58.274Z,98113.79
2022-12-25T12:42:33.118Z,98122.38
2022-12-25T12:45:12.621Z,98117.81
2022-12-25T12:47:45.987Z,98115.12
2022-12-25T12:50:37.043Z,98125.05
2022-12-25T12:53:25.460Z,98121.34
2022-12-25T12:55:53.541Z,98125.36
2022-12-25T12:58:34.649Z,98135.53
2022-12-25T13:01:28.289Z,98148.92
2022-12-25T13:04:41.795Z,98157.21
2022-12-25T13:07:59.306Z,98157.75
2022-12-25T13:10:53.041Z,98157.52
2022-12-25T13:13:32.473Z,98157.78
2022-12-25T13:16:00.149Z,98161.86
2022-12-25T13:18:28.228Z,98161.88
2022-12-25T13:21:03.881Z,98162.45
2022-12-25T13:23:38.865Z,98167.30
2022-12-25T13:26:16.744Z,98168.41
2022-12-25T13:28:47.373Z,98169.53
2022-12-25T13:31:25.824Z,98165.56
2022-12-25T13:34:23.765Z,98165.59
2022-12-25T13:36:52.362Z,98165.59
2022-12-25T13:39:20.715Z,98166.68
2022-12-25T13:42:08.979Z,98171.77
2022-12-25T13:44:52.286Z,98173.41
2022-12-25T13:47:28.678Z,98174.22
2022-12-25T13:50:00.153Z,98173.17
2022-12-25T13:52:37.431Z,98177.73
2022-12-25T13:55:16.447Z,98177.46
2022-12-25T13:58:02.677Z,98177.46
2022-12-25T14:00:46.432Z,98185.25
2022-12-25T14:03:25.852Z,98178.33
2022-12-25T14:06:02.008Z,98172.75
2022-12-25T14:08:32.013Z,98175.45
2022-12-25T14:11:04.473Z,98185.69
2022-12-25T14:13:40.344Z,98183.59
2022-12-25T14:16:12.346Z,98184.19
2022-12-25T14:18:51.905Z,98191.70
2022-12-25T14:21:33.309Z,98188.54
2022-12-25T14:24:01.548Z,98192.34
2022-12-25T14:26:35.853Z,98188.89
2022-12-25T14:29:17.837Z,98187.03
2022-12-25T14:31:47.474Z,98184.65
2022-12-25T14:34:26.805Z,98181.18
2022-12-25T14:36:54.839Z,98185.73
2022-12-25T14:39:37.818Z,98182.53
2022-12-25T14:42:22.381Z,98175.62
2022-12-25T14:45:23.421Z,98179.94
2022-12-25T14:47:58.473Z,98181.31
2022-12-25T14:50:39.080Z,98185.95
2022-12-25T14:53:20.483Z,98192.70
2022-12-25T14:55:53.902Z,98190.09
2022-12-25T14:58:27.835Z,98199.23
2022-12-25T15:00:59.247Z,98193.95
2022-12-25T15:03:35.862Z,98196.66
2022-12-25T15:06:13.315Z,98195.66
2022-12-25T15:08:40.885Z,98192.77
2022-12-25T15:11:08.940Z,98192.54
2022-12-25T15:13:36.697Z,98197.94
2022-12-25T15:16:15.115Z,98189.45
2022-12-25T15:18:46.587Z,98190.33
2022-12-25T15:21:24.183Z,98192.50
2022-12-25T15:23:57.445Z,98194.72
2022-12-25T15:26:28.740Z,98202.26
2022-12-25T15:28:57.851Z,98206.02
2022-12-25T15:31:32.386Z,98203.91
2022-12-25T15:34:04.058Z,98211.16
2022-12-25T15:36:32.284Z,98209.56
2022-12-25T15:39:01.134Z,98207.72
2022-12-25T15:41:52.526Z,98209.08
2022-12-25T15:44:20.994Z,98210.69
2022-12-25T15:46:49.031Z,98212.28
2022-12-25T15:49:17.496Z,98217.36
2022-12-25T15:51:46.968Z,98213.65
2022-12-25T15:54:14.954Z,98222.45
2022-12-25T15:56:47.140Z,98231.25
2022-12-25T15:59:17.506Z,98227.77
2022-12-25T16:01:53.164Z,98228.85
2022-12-25T16:04:25.293Z,98232.03
2022-12-25T16:06:54.790Z,98238.69
2022-12-25T16:09:23.131Z,98244.27
2022-12-25T16:11:51.283Z,98242.94
2022-12-25T16:14:18.966Z,98238.66
2022-12-25T16:16:46.765Z,98240.78
2022-12-25T16:19:14.417Z,98245.03
2022-12-25T16:21:46.993Z,98252.98
2022-12-25T16:24:14.767Z,98250.84
2022-12-25T16:26:42.963Z,98253.75
2022-12-25T16:29:11.120Z,98251.86
2022-12-25T16:31:39.424Z,98258.22
2022-12-25T16:34:08.228Z,98262.73
2022-12-25T16:36:36.183Z,98270.97
2022-12-25T16:39:04.508Z,98276.81
2022-12-25T16:41:32.969Z,98283.69
2022-12-25T16:44:08.003Z,98279.94
2022-12-25T16:46:36.951Z,98274.88
2022-12-25T16:49:05.216Z,98270.87
2022-12-25T16:51:33.310Z,98270.82
2022-12-25T16:54:01.297Z,98271.05
2022-12-25T16:56:30.255Z,98271.83
2022-12-25T16:58:58.778Z,98249.38
2022-12-25T17:01:27.124Z,98272.82
2022-12-25T17:04:01.188Z,98269.08
2022-12-25T17:06:29.219Z,98260.23
2022-12-25T17:08:59.822Z,98256.75
2022-12-25T17:11:29.782Z,98272.41
2022-12-25T17:14:02.064Z,98265.47
2022-12-25T17:16:34.254Z,98264.09
2022-12-25T17:19:07.778Z,98262.20
2022-12-25T17:21:37.845Z,98258.72
2022-12-25T17:24:06.773Z,98265.07
2022-12-25T17:26:35.449Z,98274.34
2022-12-25T17:29:03.745Z,98274.34
2022-12-25T17:31:31.548Z,98276.94
2022-12-25T17:34:01.567Z,98271.06
2022-12-25T17:36:30.938Z,98271.03
2022-12-25T17:39:01.223Z,98276.34
2022-12-25T17:41:29.169Z,98273.16
2022-12-25T17:43:56.907Z,98270.53
2022-12-25T17:46:28.497Z,98266.55
2022-12-25T17:48:59.661Z,98273.22
2022-12-25T17:51:30.262Z,98275.88
2022-12-25T17:54:02.657Z,98271.63
2022-12-25T17:56:31.616Z,98277.50
2022-12-25T17:59:03.958Z,98272.72
2022-12-25T18:01:32.729Z,98270.86
2022-12-25T18:04:01.120Z,98267.70
2022-12-25T18:06:29.270Z,98264.51
2022-12-25T18:08:58.013Z,98264.24
2022-12-25T18:11:30.914Z,98274.05
2022-12-25T18:14:04.720Z,98255.33
2022-12-25T18:16:35.479Z,98284.94
2022-12-25T18:19:04.022Z,98290.26
2022-12-25T18:21:32.016Z,98295.80
2022-12-25T18:24:03.775Z,98297.41
2022-12-25T18:26:32.599Z,98308.30
2022-12-25T18:29:02.456Z,98316.77
2022-12-25T18:31:31.282Z,98314.91
2022-12-25T18:34:00.161Z,98318.09
2022-12-25T18:36:29.541Z,98312.25
2022-12-25T18:38:58.830Z,98308.80
2022-12-25T18:41:28.232Z,98319.95
2022-12-25T18:43:57.579Z,98319.95
2022-12-25T18:46:27.380Z,98324.70
2022-12-25T18:48:56.924Z,98319.36
2022-12-25T18:51:28.694Z,98330.25
2022-12-25T18:53:56.029Z,98328.62
2022-12-25T18:56:23.648Z,98318.48
2022-12-25T18:58:51.452Z,98319.52
2022-12-25T19:01:23.533Z,98318.16
2022-12-25T19:03:57.160Z,98317.59
2022-12-25T19:06:26.515Z,98311.44
2022-12-25T19:08:59.120Z,98311.41
2022-12-25T19:11:26.885Z,98315.34
2022-12-25T19:13:55.831Z,98318.50
2022-12-25T19:16:23.932Z,98322.17
2022-12-25T19:18:51.771Z,98316.03
2022-12-25T19:21:19.705Z,98313.07
2022-12-25T19:23:47.585Z,98314.66
2022-12-25T19:26:15.287Z,98312.50
2022-12-25T19:28:43.171Z,98313.52
2022-12-25T19:31:11.949Z,98303.62
2022-12-25T19:33:41.906Z,98305.17
2022-12-25T19:36:13.798Z,98306.19
2022-12-25T19:38:43.450Z,98304.81
2022-12-25T19:41:17.792Z,98309.03
2022-12-25T19:43:47.900Z,98304.51
2022-12-25T19:46:29.441Z,98302.88
2022-12-25T19:48:58.719Z,98307.34
2022-12-25T19:51:28.760Z,98296.15
2022-12-25T19:53:56.797Z,98296.33
2022-12-25T19:56:26.822Z,98298.45
2022-12-25T19:58:55.533Z,98290.45
2022-12-25T20:01:27.255Z,98296.77
2022-12-25T20:03:56.755Z,98302.30
2022-12-25T20:06:31.669Z,98311.31
2022-12-25T20:09:04.651Z,98305.70
2022-12-25T20:11:34.704Z,98308.56
2022-12-25T20:14:04.503Z,98309.85
2022-12-25T20:16:32.738Z,98301.35
2022-12-25T20:19:00.409Z,98301.04
2022-12-25T20:21:29.328Z,98303.69
2022-12-25T20:23:57.373Z,98306.88
2022-12-25T20:26:29.007Z,98305.77
2022-12-25T20:28:57.480Z,98306.30
2022-12-25T20:31:29.201Z,98298.30
2022-12-25T20:34:00.472Z,98305.41
2022-12-25T20:36:34.429Z,98301.69
2022-12-25T20:38:57.671Z,98293.73
2022-12-25T20:41:27.328Z,98294.48
2022-12-25T20:43:54.970Z,98295.02
2022-12-25T20:46:25.229Z,98300.58
2022-12-25T20:48:53.575Z,98306.36
2022-12-25T20:51:25.355Z,98304.77
2022-12-25T20:53:54.342Z,98301.50
2022-12-25T20:56:25.423Z,98299.63
2022-12-25T20:58:57.637Z,98295.55
2022-12-25T21:01:28.215Z,98310.39
2022-12-25T21:03:57.218Z,98306.63
2022-12-25T21:06:25.017Z,98305.73
2022-12-25T21:08:54.486Z,98307.00
2022-12-25T21:11:23.023Z,98315.26
2022-12-25T21:13:51.023Z,98318.93
2022-12-25T21:16:24.908Z,98319.77
2022-12-25T21:18:58.851Z,98311.19
2022-12-25T21:21:27.474Z,98313.09
2022-12-25T21:23:56.670Z,98321.27
2022-12-25T21:26:30.448Z,98324.16
2022-12-25T21:29:01.724Z,98338.22
2022-12-25T21:31:33.021Z,98335.30
2022-12-25T21:34:00.635Z,98324.12
2022-12-25T21:36:31.819Z,98323.00
2022-12-25T21:39:07.518Z,98325.05
2022-12-25T21:41:38.118Z,98329.77
2022-12-25T21:44:08.456Z,98331.34
2022-12-25T21:46:36.199Z,98332.37
2022-12-25T21:49:03.967Z,98343.22
2022-12-25T21:51:52.720Z,98354.34
2022-12-25T21:54:23.696Z,98362.28
2022-12-25T21:56:51.530Z,98359.36
2022-12-25T21:59:21.637Z,98370.18
2022-12-25T22:02:06.845Z,98376.01
2022-12-25T22:04:36.570Z,98366.93
2022-12-25T22:07:17.206Z,98375.67
2022-12-25T22:09:48.571Z,98376.48
2022-12-25T22:12:38.129Z,98379.13
2022-12-25T22:15:10.774Z,98391.38
2022-12-25T22:18:00.209Z,98390.11
2022-12-25T22:20:36.152Z,98385.36
2022-12-25T22:23:05.074Z,98377.98
2022-12-25T22:25:32.890Z,98374.28
2022-12-25T22:28:00.678Z,98370.69
2022-12-25T22:30:29.274Z,98374.19
2022-12-25T22:32:57.387Z,98372.14
2022-12-25T22:35:25.202Z,98374.84
2022-12-25T22:37:53.642Z,98379.94
2022-12-25T22:40:21.417Z,98373.36
2022-12-25T22:42:53.184Z,98369.71
2022-12-25T22:45:22.799Z,98369.23
2022-12-25T22:47:53.390Z,98362.63
2022-12-25T22:50:21.925Z,98365.05
2022-12-25T22:52:50.565Z,98365.62
2022-12-25T22:55:21.899Z,98368.03
2022-12-25T22:57:51.689Z,98369.67
2022-12-25T23:00:20.759Z,98365.75
2022-12-25T23:02:49.075Z,98363.89
2022-12-25T23:05:17.757Z,98360.50
2022-12-25T23:07:45.456Z,98351.50
2022-12-25T23:10:13.411Z,98347.02
2022-12-25T23:13:00.125Z,98342.27
2022-12-25T23:15:28.457Z,98340.45
2022-12-25T23:18:14.435Z,98335.42
2022-12-25T23:21:00.818Z,98337.55
2022-12-25T23:23:47.478Z,98341.83
2022-12-25T23:26:18.415Z,98346.29
2022-12-25T23:29:04.714Z,98343.06
2022-12-25T23:31:40.198Z,98336.96
2022-12-25T23:34:09.893Z,98337.76
2022-12-25T23:36:37.700Z,98334.36
2022-12-25T23:39:10.025Z,98329.59
2022-12-25T23:41:35.892Z,98325.13
2022-12-25T23:44:03.651Z,98328.31
2022-12-25T23:46:31.704Z,98332.06
2022-12-25T23:48:59.439Z,98334.19
2022-12-25T23:51:27.417Z,98346.66
2022-12-25T23:53:55.292Z,98352.50
2022-12-25T23:56:23.523Z,98348.82
2022-12-25T23:58:51.518Z,98347.77
